Метеостанция


АнтоновUKKM 070700Z 17003MPS 140V200 CAVOK 25/12 Q1014 R15/CLRD70 NOSIG
БориспольUKBB 070700Z 15003MPS 120V190 CAVOK 25/14 Q1014 R18L/CLRD// NOSIG
Гаврышовка (Винница)UKWW 070700Z 17004MPS 140V210 CAVOK 23/11 Q1013 NOSIG
ДнепропетровскUKDD 070700Z 12004MPS 090V150 CAVOK 24/12 Q1016 R08/090070 NOSIG
ЖуляныUKKK 070700Z 19003MPS 140V270 CAVOK 25/13 Q1014 R26/CLRD70 NOSIG
Запорожье(Мокрая)UKDE 070700Z 08004MPS 040V120 CAVOK 25/13 Q1016 R02R/090070 NOSIG
Ивано-ФранковскUKLI 070700Z VRB01MPS CAVOK 22/17 Q1010 NOSIG
Кривой РогUKDR 070700Z 14004MPS 080V200 CAVOK 24/10 Q1015 R36/09//70 NOSIG
ЛьвовUKLL 070700Z 13003MPS CAVOK 21/16 Q1010 R13/CLRD// NOSIG
Николаев
ОдессаUKOO 070700Z 09004MPS CAVOK 21/15 Q1013 R16/090060 NOSIG
РовноUKLR 070700Z 10006MPS 060V150 9999 SCT023CB 21/17 Q1012 NOSIG
УжгородUKLU 070700Z VRB01MPS 9999 NSC 23/14 Q1008 R10/090070 NOSIG
Харьков
Черновцы
Скачать:
Скачать этот файл (Metar_шпаргалка.jpg)Расшифровка METAR[ ]4799 Кб
Вся информация, которая имеется в использовании на сайте и доступная для скачивания, получена исключительно из открытых источников информации сети Интернет, всякое совпадение с данными, имеющими ограничения в доступе, случайное и не является преднамеренным.
^ Наверх